sensor_id;sensor_type;location;lat;lon;timestamp;P1;durP1;ratioP1;P2;durP2;ratioP2
21507;SDS011;10915;54.352;9.074;2023-02-20T00:00:22;19.33;;;4.47;;
21507;SDS011;10915;54.352;9.074;2023-02-20T00:02:52;12.93;;;4.10;;
21507;SDS011;10915;54.352;9.074;2023-02-20T00:05:19;14.30;;;4.03;;
21507;SDS011;10915;54.352;9.074;2023-02-20T00:07:46;18.50;;;4.10;;
21507;SDS011;10915;54.352;9.074;2023-02-20T00:10:22;22.10;;;4.97;;
21507;SDS011;10915;54.352;9.074;2023-02-20T00:12:55;19.37;;;4.47;;
21507;SDS011;10915;54.352;9.074;2023-02-20T00:15:21;17.27;;;4.17;;
21507;SDS011;10915;54.352;9.074;2023-02-20T00:17:47;20.23;;;4.60;;
21507;SDS011;10915;54.352;9.074;2023-02-20T00:20:18;15.30;;;3.90;;
21507;SDS011;10915;54.352;9.074;2023-02-20T00:22:47;15.00;;;3.83;;
21507;SDS011;10915;54.352;9.074;2023-02-20T00:25:14;14.63;;;4.50;;
21507;SDS011;10915;54.352;9.074;2023-02-20T00:27:41;20.00;;;5.10;;
21507;SDS011;10915;54.352;9.074;2023-02-20T00:30:15;16.53;;;4.70;;
21507;SDS011;10915;54.352;9.074;2023-02-20T00:32:43;21.63;;;5.47;;
21507;SDS011;10915;54.352;9.074;2023-02-20T00:35:10;14.77;;;4.50;;
21507;SDS011;10915;54.352;9.074;2023-02-20T00:37:36;16.23;;;5.73;;
21507;SDS011;10915;54.352;9.074;2023-02-20T00:40:05;19.60;;;5.57;;
21507;SDS011;10915;54.352;9.074;2023-02-20T00:42:32;19.93;;;5.83;;
21507;SDS011;10915;54.352;9.074;2023-02-20T00:44:58;20.27;;;6.27;;
21507;SDS011;10915;54.352;9.074;2023-02-20T00:47:24;21.17;;;5.67;;
21507;SDS011;10915;54.352;9.074;2023-02-20T00:49:49;16.80;;;5.90;;
21507;SDS011;10915;54.352;9.074;2023-02-20T00:52:15;17.43;;;5.53;;
21507;SDS011;10915;54.352;9.074;2023-02-20T00:54:41;16.17;;;4.73;;
21507;SDS011;10915;54.352;9.074;2023-02-20T00:57:07;20.20;;;5.67;;
21507;SDS011;10915;54.352;9.074;2023-02-20T00:59:32;15.13;;;4.93;;
21507;SDS011;10915;54.352;9.074;2023-02-20T01:01:58;17.37;;;6.13;;
21507;SDS011;10915;54.352;9.074;2023-02-20T01:04:24;17.03;;;5.67;;
21507;SDS011;10915;54.352;9.074;2023-02-20T01:06:49;19.53;;;6.43;;
21507;SDS011;10915;54.352;9.074;2023-02-20T01:09:15;18.70;;;6.43;;
21507;SDS011;10915;54.352;9.074;2023-02-20T01:11:41;16.10;;;6.43;;
21507;SDS011;10915;54.352;9.074;2023-02-20T01:14:08;20.70;;;6.33;;
21507;SDS011;10915;54.352;9.074;2023-02-20T01:16:34;19.23;;;6.50;;
21507;SDS011;10915;54.352;9.074;2023-02-20T01:18:59;18.07;;;6.37;;
21507;SDS011;10915;54.352;9.074;2023-02-20T01:21:25;21.97;;;6.80;;
21507;SDS011;10915;54.352;9.074;2023-02-20T01:23:51;16.70;;;6.47;;
21507;SDS011;10915;54.352;9.074;2023-02-20T01:26:16;16.57;;;6.83;;
21507;SDS011;10915;54.352;9.074;2023-02-20T01:28:45;19.77;;;7.43;;
21507;SDS011;10915;54.352;9.074;2023-02-20T01:31:14;19.53;;;7.60;;
21507;SDS011;10915;54.352;9.074;2023-02-20T01:33:43;18.83;;;8.00;;
21507;SDS011;10915;54.352;9.074;2023-02-20T01:36:08;20.67;;;7.13;;
21507;SDS011;10915;54.352;9.074;2023-02-20T01:38:35;19.87;;;7.20;;
21507;SDS011;10915;54.352;9.074;2023-02-20T01:41:01;20.73;;;7.83;;
21507;SDS011;10915;54.352;9.074;2023-02-20T01:43:27;21.03;;;7.90;;
21507;SDS011;10915;54.352;9.074;2023-02-20T01:45:52;17.40;;;8.00;;
21507;SDS011;10915;54.352;9.074;2023-02-20T01:48:24;22.00;;;7.30;;
21507;SDS011;10915;54.352;9.074;2023-02-20T01:50:51;19.07;;;7.30;;
21507;SDS011;10915;54.352;9.074;2023-02-20T01:53:22;21.50;;;7.67;;
21507;SDS011;10915;54.352;9.074;2023-02-20T01:55:57;14.93;;;7.00;;
21507;SDS011;10915;54.352;9.074;2023-02-20T02:00:58;20.47;;;8.30;;
21507;SDS011;10915;54.352;9.074;2023-02-20T02:03:25;24.97;;;8.10;;
21507;SDS011;10915;54.352;9.074;2023-02-20T02:06:03;19.97;;;7.93;;
21507;SDS011;10915;54.352;9.074;2023-02-20T02:08:31;23.10;;;9.47;;
21507;SDS011;10915;54.352;9.074;2023-02-20T02:11:00;22.07;;;8.07;;
21507;SDS011;10915;54.352;9.074;2023-02-20T02:13:35;20.00;;;8.57;;
21507;SDS011;10915;54.352;9.074;2023-02-20T02:36:03;22.17;;;10.03;;
21507;SDS011;10915;54.352;9.074;2023-02-20T02:38:50;21.13;;;9.60;;
21507;SDS011;10915;54.352;9.074;2023-02-20T02:41:27;23.17;;;9.70;;
21507;SDS011;10915;54.352;9.074;2023-02-20T02:44:18;28.80;;;10.30;;
21507;SDS011;10915;54.352;9.074;2023-02-20T02:46:55;25.33;;;10.20;;
21507;SDS011;10915;54.352;9.074;2023-02-20T02:49:33;26.50;;;10.90;;
21507;SDS011;10915;54.352;9.074;2023-02-20T02:52:04;29.20;;;11.73;;
21507;SDS011;10915;54.352;9.074;2023-02-20T02:54:30;25.70;;;11.30;;
21507;SDS011;10915;54.352;9.074;2023-02-20T03:00:11;21.87;;;11.50;;
21507;SDS011;10915;54.352;9.074;2023-02-20T03:02:53;26.30;;;11.60;;
21507;SDS011;10915;54.352;9.074;2023-02-20T03:05:33;27.87;;;12.80;;
21507;SDS011;10915;54.352;9.074;2023-02-20T03:11:18;30.93;;;14.00;;
21507;SDS011;10915;54.352;9.074;2023-02-20T03:16:44;32.93;;;13.47;;
21507;SDS011;10915;54.352;9.074;2023-02-20T03:25:00;28.53;;;13.20;;
21507;SDS011;10915;54.352;9.074;2023-02-20T03:30:30;29.93;;;14.70;;
21507;SDS011;10915;54.352;9.074;2023-02-20T03:33:12;36.47;;;14.37;;
21507;SDS011;10915;54.352;9.074;2023-02-20T03:36:01;36.90;;;15.67;;
21507;SDS011;10915;54.352;9.074;2023-02-20T03:38:50;45.70;;;16.10;;
21507;SDS011;10915;54.352;9.074;2023-02-20T03:41:40;38.73;;;16.90;;
21507;SDS011;10915;54.352;9.074;2023-02-20T03:44:26;34.27;;;15.23;;
21507;SDS011;10915;54.352;9.074;2023-02-20T03:46:54;31.20;;;16.07;;
21507;SDS011;10915;54.352;9.074;2023-02-20T03:49:24;33.53;;;17.13;;
21507;SDS011;10915;54.352;9.074;2023-02-20T03:51:53;40.97;;;17.10;;
21507;SDS011;10915;54.352;9.074;2023-02-20T03:54:19;45.77;;;16.83;;
21507;SDS011;10915;54.352;9.074;2023-02-20T03:56:46;35.20;;;16.73;;
21507;SDS011;10915;54.352;9.074;2023-02-20T03:59:24;38.37;;;17.27;;
21507;SDS011;10915;54.352;9.074;2023-02-20T04:01:56;41.37;;;17.47;;
21507;SDS011;10915;54.352;9.074;2023-02-20T04:04:30;42.07;;;17.17;;
21507;SDS011;10915;54.352;9.074;2023-02-20T04:09:37;37.83;;;17.33;;
21507;SDS011;10915;54.352;9.074;2023-02-20T04:12:11;43.03;;;17.60;;
21507;SDS011;10915;54.352;9.074;2023-02-20T04:14:45;39.93;;;18.17;;
21507;SDS011;10915;54.352;9.074;2023-02-20T04:17:13;43.90;;;19.40;;
21507;SDS011;10915;54.352;9.074;2023-02-20T04:19:44;46.37;;;18.67;;
21507;SDS011;10915;54.352;9.074;2023-02-20T04:22:10;44.13;;;18.77;;
21507;SDS011;10915;54.352;9.074;2023-02-20T04:24:49;51.33;;;19.27;;
21507;SDS011;10915;54.352;9.074;2023-02-20T04:27:20;45.77;;;19.87;;
21507;SDS011;10915;54.352;9.074;2023-02-20T04:29:47;40.93;;;19.30;;
21507;SDS011;10915;54.352;9.074;2023-02-20T04:32:13;50.77;;;19.77;;
21507;SDS011;10915;54.352;9.074;2023-02-20T04:34:38;47.10;;;19.10;;
21507;SDS011;10915;54.352;9.074;2023-02-20T04:37:06;46.10;;;18.70;;
21507;SDS011;10915;54.352;9.074;2023-02-20T04:39:34;44.93;;;17.80;;
21507;SDS011;10915;54.352;9.074;2023-02-20T04:42:00;46.87;;;18.27;;
21507;SDS011;10915;54.352;9.074;2023-02-20T04:44:25;42.20;;;15.97;;
21507;SDS011;10915;54.352;9.074;2023-02-20T04:46:58;43.80;;;17.00;;
21507;SDS011;10915;54.352;9.074;2023-02-20T04:49:26;51.90;;;17.27;;
21507;SDS011;10915;54.352;9.074;2023-02-20T04:51:52;43.60;;;17.17;;
21507;SDS011;10915;54.352;9.074;2023-02-20T04:54:18;45.50;;;16.13;;
21507;SDS011;10915;54.352;9.074;2023-02-20T04:56:45;45.40;;;17.13;;
21507;SDS011;10915;54.352;9.074;2023-02-20T04:59:11;54.30;;;16.33;;
21507;SDS011;10915;54.352;9.074;2023-02-20T05:01:37;46.63;;;16.87;;
21507;SDS011;10915;54.352;9.074;2023-02-20T05:04:03;42.10;;;16.23;;
21507;SDS011;10915;54.352;9.074;2023-02-20T05:06:29;47.63;;;16.80;;
21507;SDS011;10915;54.352;9.074;2023-02-20T05:08:54;49.63;;;16.97;;
21507;SDS011;10915;54.352;9.074;2023-02-20T05:11:20;35.33;;;14.97;;
21507;SDS011;10915;54.352;9.074;2023-02-20T05:13:46;47.03;;;17.17;;
21507;SDS011;10915;54.352;9.074;2023-02-20T05:16:12;52.67;;;17.80;;
21507;SDS011;10915;54.352;9.074;2023-02-20T05:18:37;47.23;;;15.60;;
21507;SDS011;10915;54.352;9.074;2023-02-20T05:21:04;45.17;;;14.83;;
21507;SDS011;10915;54.352;9.074;2023-02-20T05:23:48;42.13;;;15.13;;
21507;SDS011;10915;54.352;9.074;2023-02-20T05:26:18;44.97;;;15.53;;
21507;SDS011;10915;54.352;9.074;2023-02-20T05:28:45;51.87;;;15.00;;
21507;SDS011;10915;54.352;9.074;2023-02-20T05:31:11;49.67;;;14.77;;
21507;SDS011;10915;54.352;9.074;2023-02-20T05:33:37;45.70;;;15.33;;
21507;SDS011;10915;54.352;9.074;2023-02-20T05:36:03;41.20;;;15.50;;
21507;SDS011;10915;54.352;9.074;2023-02-20T05:38:29;49.10;;;15.63;;
21507;SDS011;10915;54.352;9.074;2023-02-20T05:40:55;52.07;;;15.93;;
21507;SDS011;10915;54.352;9.074;2023-02-20T05:43:20;48.87;;;14.90;;
21507;SDS011;10915;54.352;9.074;2023-02-20T05:45:46;39.10;;;14.63;;
21507;SDS011;10915;54.352;9.074;2023-02-20T05:48:12;50.17;;;15.33;;
21507;SDS011;10915;54.352;9.074;2023-02-20T05:50:38;56.77;;;13.60;;
21507;SDS011;10915;54.352;9.074;2023-02-20T05:53:04;43.10;;;13.20;;
21507;SDS011;10915;54.352;9.074;2023-02-20T05:55:30;45.00;;;14.43;;
21507;SDS011;10915;54.352;9.074;2023-02-20T05:57:56;42.37;;;14.50;;
21507;SDS011;10915;54.352;9.074;2023-02-20T06:00:22;44.80;;;13.90;;
21507;SDS011;10915;54.352;9.074;2023-02-20T06:02:48;45.70;;;13.30;;
21507;SDS011;10915;54.352;9.074;2023-02-20T06:05:14;40.60;;;13.03;;
21507;SDS011;10915;54.352;9.074;2023-02-20T06:07:44;46.03;;;13.73;;
21507;SDS011;10915;54.352;9.074;2023-02-20T06:10:10;37.03;;;11.70;;
21507;SDS011;10915;54.352;9.074;2023-02-20T06:12:36;47.87;;;14.80;;
21507;SDS011;10915;54.352;9.074;2023-02-20T06:15:02;40.70;;;13.23;;
21507;SDS011;10915;54.352;9.074;2023-02-20T06:17:30;49.63;;;13.00;;
21507;SDS011;10915;54.352;9.074;2023-02-20T06:19:56;45.30;;;13.10;;
21507;SDS011;10915;54.352;9.074;2023-02-20T06:22:22;54.13;;;14.83;;
21507;SDS011;10915;54.352;9.074;2023-02-20T06:24:47;42.53;;;13.47;;
21507;SDS011;10915;54.352;9.074;2023-02-20T06:27:14;42.70;;;13.40;;
21507;SDS011;10915;54.352;9.074;2023-02-20T06:29:40;42.17;;;12.93;;
21507;SDS011;10915;54.352;9.074;2023-02-20T06:32:06;48.03;;;13.87;;
21507;SDS011;10915;54.352;9.074;2023-02-20T06:34:31;46.37;;;12.37;;
21507;SDS011;10915;54.352;9.074;2023-02-20T06:37:01;39.70;;;11.83;;
21507;SDS011;10915;54.352;9.074;2023-02-20T06:39:27;50.97;;;12.77;;
21507;SDS011;10915;54.352;9.074;2023-02-20T06:41:54;37.23;;;13.77;;
21507;SDS011;10915;54.352;9.074;2023-02-20T06:44:20;45.73;;;12.63;;
21507;SDS011;10915;54.352;9.074;2023-02-20T06:46:47;47.13;;;14.03;;
21507;SDS011;10915;54.352;9.074;2023-02-20T06:49:13;46.63;;;13.60;;
21507;SDS011;10915;54.352;9.074;2023-02-20T06:51:42;44.77;;;12.70;;
21507;SDS011;10915;54.352;9.074;2023-02-20T06:54:36;41.13;;;13.63;;
21507;SDS011;10915;54.352;9.074;2023-02-20T06:57:02;50.93;;;14.63;;
21507;SDS011;10915;54.352;9.074;2023-02-20T06:59:28;46.00;;;13.20;;
21507;SDS011;10915;54.352;9.074;2023-02-20T07:02:03;47.43;;;13.40;;
21507;SDS011;10915;54.352;9.074;2023-02-20T07:04:30;46.80;;;13.00;;
21507;SDS011;10915;54.352;9.074;2023-02-20T07:06:55;44.77;;;12.40;;
21507;SDS011;10915;54.352;9.074;2023-02-20T07:09:21;50.10;;;13.37;;
21507;SDS011;10915;54.352;9.074;2023-02-20T07:11:47;41.40;;;12.40;;
21507;SDS011;10915;54.352;9.074;2023-02-20T07:14:15;42.10;;;12.37;;
21507;SDS011;10915;54.352;9.074;2023-02-20T07:16:41;46.00;;;12.00;;
21507;SDS011;10915;54.352;9.074;2023-02-20T07:19:06;40.97;;;13.43;;
21507;SDS011;10915;54.352;9.074;2023-02-20T07:21:32;35.53;;;13.03;;
21507;SDS011;10915;54.352;9.074;2023-02-20T07:23:58;46.93;;;11.63;;
21507;SDS011;10915;54.352;9.074;2023-02-20T07:29:57;43.43;;;14.23;;
21507;SDS011;10915;54.352;9.074;2023-02-20T07:32:26;46.70;;;13.23;;
21507;SDS011;10915;54.352;9.074;2023-02-20T07:34:51;44.63;;;12.80;;
21507;SDS011;10915;54.352;9.074;2023-02-20T07:37:23;51.23;;;13.47;;
21507;SDS011;10915;54.352;9.074;2023-02-20T07:40:01;45.67;;;12.23;;
21507;SDS011;10915;54.352;9.074;2023-02-20T07:42:31;49.90;;;13.70;;
21507;SDS011;10915;54.352;9.074;2023-02-20T07:44:59;45.97;;;11.87;;
21507;SDS011;10915;54.352;9.074;2023-02-20T07:47:34;37.20;;;12.43;;
21507;SDS011;10915;54.352;9.074;2023-02-20T07:50:00;39.60;;;12.17;;
21507;SDS011;10915;54.352;9.074;2023-02-20T07:52:26;48.47;;;13.57;;
21507;SDS011;10915;54.352;9.074;2023-02-20T07:54:52;42.27;;;12.23;;
21507;SDS011;10915;54.352;9.074;2023-02-20T07:57:18;39.60;;;12.10;;
21507;SDS011;10915;54.352;9.074;2023-02-20T07:59:52;48.50;;;12.73;;
21507;SDS011;10915;54.352;9.074;2023-02-20T08:02:18;45.73;;;13.23;;
21507;SDS011;10915;54.352;9.074;2023-02-20T08:04:47;44.17;;;13.30;;
21507;SDS011;10915;54.352;9.074;2023-02-20T08:07:22;46.23;;;13.03;;
21507;SDS011;10915;54.352;9.074;2023-02-20T08:09:48;41.43;;;11.67;;
21507;SDS011;10915;54.352;9.074;2023-02-20T08:12:17;44.47;;;12.77;;
21507;SDS011;10915;54.352;9.074;2023-02-20T08:14:43;40.93;;;12.17;;
21507;SDS011;10915;54.352;9.074;2023-02-20T08:17:08;49.10;;;12.87;;
21507;SDS011;10915;54.352;9.074;2023-02-20T08:19:36;43.47;;;12.40;;
21507;SDS011;10915;54.352;9.074;2023-02-20T08:22:04;42.93;;;11.93;;
21507;SDS011;10915;54.352;9.074;2023-02-20T08:24:31;48.07;;;12.10;;
21507;SDS011;10915;54.352;9.074;2023-02-20T08:27:00;41.57;;;12.50;;
21507;SDS011;10915;54.352;9.074;2023-02-20T08:29:29;46.27;;;12.53;;
21507;SDS011;10915;54.352;9.074;2023-02-20T08:31:55;35.80;;;11.23;;
21507;SDS011;10915;54.352;9.074;2023-02-20T08:34:23;43.10;;;12.23;;
21507;SDS011;10915;54.352;9.074;2023-02-20T08:36:49;36.30;;;10.97;;
21507;SDS011;10915;54.352;9.074;2023-02-20T08:39:14;41.83;;;11.30;;
21507;SDS011;10915;54.352;9.074;2023-02-20T08:41:44;40.83;;;11.03;;
21507;SDS011;10915;54.352;9.074;2023-02-20T08:44:11;39.97;;;11.23;;
21507;SDS011;10915;54.352;9.074;2023-02-20T08:46:48;39.10;;;10.77;;
21507;SDS011;10915;54.352;9.074;2023-02-20T08:49:16;44.73;;;11.30;;
21507;SDS011;10915;54.352;9.074;2023-02-20T08:51:43;42.73;;;11.37;;
21507;SDS011;10915;54.352;9.074;2023-02-20T08:54:13;44.17;;;10.27;;
21507;SDS011;10915;54.352;9.074;2023-02-20T08:56:40;38.87;;;10.30;;
21507;SDS011;10915;54.352;9.074;2023-02-20T08:59:08;40.93;;;12.60;;
21507;SDS011;10915;54.352;9.074;2023-02-20T09:01:41;47.10;;;11.37;;
21507;SDS011;10915;54.352;9.074;2023-02-20T09:04:10;40.37;;;9.97;;
21507;SDS011;10915;54.352;9.074;2023-02-20T09:06:42;41.47;;;10.17;;
21507;SDS011;10915;54.352;9.074;2023-02-20T09:09:07;42.37;;;10.80;;
21507;SDS011;10915;54.352;9.074;2023-02-20T09:11:33;41.37;;;11.80;;
21507;SDS011;10915;54.352;9.074;2023-02-20T09:14:00;36.77;;;9.87;;
21507;SDS011;10915;54.352;9.074;2023-02-20T09:16:26;39.57;;;10.27;;
21507;SDS011;10915;54.352;9.074;2023-02-20T09:18:52;40.83;;;10.30;;
21507;SDS011;10915;54.352;9.074;2023-02-20T09:21:21;38.97;;;10.23;;
21507;SDS011;10915;54.352;9.074;2023-02-20T09:23:47;37.83;;;9.43;;
21507;SDS011;10915;54.352;9.074;2023-02-20T09:26:12;42.87;;;8.90;;
21507;SDS011;10915;54.352;9.074;2023-02-20T09:28:38;33.53;;;9.37;;
21507;SDS011;10915;54.352;9.074;2023-02-20T09:31:04;34.43;;;9.10;;
21507;SDS011;10915;54.352;9.074;2023-02-20T09:33:30;31.00;;;8.50;;
21507;SDS011;10915;54.352;9.074;2023-02-20T09:35:56;34.43;;;9.17;;
21507;SDS011;10915;54.352;9.074;2023-02-20T09:38:22;42.50;;;9.07;;
21507;SDS011;10915;54.352;9.074;2023-02-20T09:40:52;37.10;;;8.30;;
21507;SDS011;10915;54.352;9.074;2023-02-20T09:43:31;37.00;;;8.30;;
21507;SDS011;10915;54.352;9.074;2023-02-20T09:46:19;37.33;;;9.63;;
21507;SDS011;10915;54.352;9.074;2023-02-20T09:49:10;33.93;;;8.67;;
21507;SDS011;10915;54.352;9.074;2023-02-20T09:51:42;37.83;;;8.13;;
21507;SDS011;10915;54.352;9.074;2023-02-20T09:54:19;32.10;;;8.70;;
21507;SDS011;10915;54.352;9.074;2023-02-20T09:56:54;35.93;;;8.77;;
21507;SDS011;10915;54.352;9.074;2023-02-20T09:59:23;30.33;;;8.23;;
21507;SDS011;10915;54.352;9.074;2023-02-20T10:01:54;25.10;;;7.97;;
21507;SDS011;10915;54.352;9.074;2023-02-20T10:04:30;29.40;;;7.57;;
21507;SDS011;10915;54.352;9.074;2023-02-20T10:07:46;33.47;;;7.90;;
21507;SDS011;10915;54.352;9.074;2023-02-20T10:09:55;30.40;;;7.80;;
21507;SDS011;10915;54.352;9.074;2023-02-20T10:15:15;30.87;;;8.67;;
21507;SDS011;10915;54.352;9.074;2023-02-20T10:17:59;30.13;;;8.27;;
21507;SDS011;10915;54.352;9.074;2023-02-20T10:23:28;35.90;;;8.33;;
21507;SDS011;10915;54.352;9.074;2023-02-20T10:26:08;34.97;;;7.50;;
21507;SDS011;10915;54.352;9.074;2023-02-20T10:28:50;31.27;;;6.97;;
21507;SDS011;10915;54.352;9.074;2023-02-20T10:34:07;32.47;;;6.90;;
21507;SDS011;10915;54.352;9.074;2023-02-20T10:36:59;28.50;;;7.10;;
21507;SDS011;10915;54.352;9.074;2023-02-20T10:39:30;28.27;;;6.70;;
21507;SDS011;10915;54.352;9.074;2023-02-20T10:41:58;33.03;;;8.27;;
21507;SDS011;10915;54.352;9.074;2023-02-20T10:44:37;26.57;;;7.40;;
21507;SDS011;10915;54.352;9.074;2023-02-20T10:47:44;26.97;;;6.57;;
21507;SDS011;10915;54.352;9.074;2023-02-20T10:50:49;24.30;;;7.00;;
21507;SDS011;10915;54.352;9.074;2023-02-20T10:53:39;26.37;;;7.67;;
21507;SDS011;10915;54.352;9.074;2023-02-20T10:59:00;28.87;;;6.67;;
21507;SDS011;10915;54.352;9.074;2023-02-20T11:01:37;30.17;;;6.70;;
21507;SDS011;10915;54.352;9.074;2023-02-20T11:09:16;29.13;;;6.93;;
21507;SDS011;10915;54.352;9.074;2023-02-20T11:11:42;37.53;;;7.30;;
21507;SDS011;10915;54.352;9.074;2023-02-20T11:14:21;35.63;;;7.97;;
21507;SDS011;10915;54.352;9.074;2023-02-20T11:17:04;24.97;;;6.57;;
21507;SDS011;10915;54.352;9.074;2023-02-20T11:19:40;31.70;;;6.80;;
21507;SDS011;10915;54.352;9.074;2023-02-20T11:22:06;31.33;;;7.90;;
21507;SDS011;10915;54.352;9.074;2023-02-20T11:24:36;31.93;;;6.97;;
21507;SDS011;10915;54.352;9.074;2023-02-20T11:27:13;30.90;;;7.27;;
21507;SDS011;10915;54.352;9.074;2023-02-20T11:35:27;29.40;;;6.80;;
21507;SDS011;10915;54.352;9.074;2023-02-20T11:43:24;36.17;;;7.47;;
21507;SDS011;10915;54.352;9.074;2023-02-20T11:46:05;30.93;;;7.57;;
21507;SDS011;10915;54.352;9.074;2023-02-20T11:48:38;35.43;;;7.87;;
21507;SDS011;10915;54.352;9.074;2023-02-20T11:51:38;29.30;;;6.47;;
21507;SDS011;10915;54.352;9.074;2023-02-20T11:57:24;29.13;;;7.17;;
21507;SDS011;10915;54.352;9.074;2023-02-20T11:59:50;31.50;;;6.83;;
21507;SDS011;10915;54.352;9.074;2023-02-20T12:02:34;31.53;;;7.40;;
21507;SDS011;10915;54.352;9.074;2023-02-20T12:07:34;30.40;;;6.87;;
21507;SDS011;10915;54.352;9.074;2023-02-20T12:10:18;26.73;;;6.70;;
21507;SDS011;10915;54.352;9.074;2023-02-20T12:12:53;35.07;;;7.33;;
21507;SDS011;10915;54.352;9.074;2023-02-20T12:15:20;33.63;;;7.00;;
21507;SDS011;10915;54.352;9.074;2023-02-20T12:18:02;27.30;;;6.97;;
21507;SDS011;10915;54.352;9.074;2023-02-20T12:20:52;36.90;;;7.10;;
21507;SDS011;10915;54.352;9.074;2023-02-20T12:28:57;37.53;;;7.50;;
21507;SDS011;10915;54.352;9.074;2023-02-20T12:31:40;36.00;;;8.07;;
21507;SDS011;10915;54.352;9.074;2023-02-20T12:45:49;31.30;;;7.03;;
21507;SDS011;10915;54.352;9.074;2023-02-20T12:51:50;35.10;;;7.70;;
21507;SDS011;10915;54.352;9.074;2023-02-20T13:02:26;39.73;;;7.67;;
21507;SDS011;10915;54.352;9.074;2023-02-20T13:04:59;40.47;;;7.87;;
21507;SDS011;10915;54.352;9.074;2023-02-20T13:10:15;33.70;;;7.80;;
21507;SDS011;10915;54.352;9.074;2023-02-20T13:12:42;31.47;;;7.93;;
21507;SDS011;10915;54.352;9.074;2023-02-20T13:15:20;30.37;;;7.43;;
21507;SDS011;10915;54.352;9.074;2023-02-20T13:18:11;39.63;;;7.73;;
21507;SDS011;10915;54.352;9.074;2023-02-20T13:20:52;35.03;;;7.77;;
21507;SDS011;10915;54.352;9.074;2023-02-20T13:23:27;32.33;;;8.33;;
21507;SDS011;10915;54.352;9.074;2023-02-20T13:25:55;32.67;;;7.80;;
21507;SDS011;10915;54.352;9.074;2023-02-20T13:28:22;37.73;;;8.87;;
21507;SDS011;10915;54.352;9.074;2023-02-20T13:31:08;44.13;;;8.73;;
21507;SDS011;10915;54.352;9.074;2023-02-20T13:33:44;46.57;;;8.40;;
21507;SDS011;10915;54.352;9.074;2023-02-20T13:47:26;38.00;;;8.77;;
21507;SDS011;10915;54.352;9.074;2023-02-20T13:49:58;35.70;;;8.13;;
21507;SDS011;10915;54.352;9.074;2023-02-20T13:57:45;38.10;;;7.83;;
21507;SDS011;10915;54.352;9.074;2023-02-20T14:00:22;35.83;;;8.83;;
21507;SDS011;10915;54.352;9.074;2023-02-20T14:02:57;45.00;;;8.87;;
21507;SDS011;10915;54.352;9.074;2023-02-20T14:05:25;42.87;;;9.83;;
21507;SDS011;10915;54.352;9.074;2023-02-20T14:07:55;42.93;;;8.87;;
21507;SDS011;10915;54.352;9.074;2023-02-20T14:10:35;42.10;;;9.93;;
21507;SDS011;10915;54.352;9.074;2023-02-20T14:13:03;42.17;;;8.97;;
21507;SDS011;10915;54.352;9.074;2023-02-20T14:15:56;30.93;;;8.87;;
21507;SDS011;10915;54.352;9.074;2023-02-20T14:18:27;32.97;;;7.77;;
21507;SDS011;10915;54.352;9.074;2023-02-20T14:21:08;32.87;;;8.27;;
21507;SDS011;10915;54.352;9.074;2023-02-20T14:23:41;37.43;;;8.60;;
21507;SDS011;10915;54.352;9.074;2023-02-20T14:28:51;34.27;;;8.00;;
21507;SDS011;10915;54.352;9.074;2023-02-20T14:33:45;36.63;;;7.93;;
21507;SDS011;10915;54.352;9.074;2023-02-20T14:42:19;31.93;;;7.97;;
21507;SDS011;10915;54.352;9.074;2023-02-20T14:44:47;44.17;;;8.83;;
21507;SDS011;10915;54.352;9.074;2023-02-20T14:47:15;34.20;;;7.70;;
21507;SDS011;10915;54.352;9.074;2023-02-20T14:49:41;42.43;;;8.80;;
21507;SDS011;10915;54.352;9.074;2023-02-20T14:52:21;33.00;;;9.10;;
21507;SDS011;10915;54.352;9.074;2023-02-20T14:55:02;35.50;;;8.03;;
21507;SDS011;10915;54.352;9.074;2023-02-20T15:00:36;28.53;;;7.87;;
21507;SDS011;10915;54.352;9.074;2023-02-20T15:03:07;38.57;;;8.47;;
21507;SDS011;10915;54.352;9.074;2023-02-20T15:06:12;38.57;;;8.07;;
21507;SDS011;10915;54.352;9.074;2023-02-20T15:08:39;39.07;;;8.53;;
21507;SDS011;10915;54.352;9.074;2023-02-20T15:11:09;35.93;;;8.60;;
21507;SDS011;10915;54.352;9.074;2023-02-20T15:13:38;27.53;;;7.87;;
21507;SDS011;10915;54.352;9.074;2023-02-20T15:16:28;34.20;;;8.27;;
21507;SDS011;10915;54.352;9.074;2023-02-20T15:18:56;39.10;;;9.37;;
21507;SDS011;10915;54.352;9.074;2023-02-20T15:21:32;40.23;;;9.10;;
21507;SDS011;10915;54.352;9.074;2023-02-20T15:24:12;35.63;;;8.60;;
21507;SDS011;10915;54.352;9.074;2023-02-20T15:27:09;38.07;;;9.00;;
21507;SDS011;10915;54.352;9.074;2023-02-20T15:29:40;42.77;;;8.67;;
21507;SDS011;10915;54.352;9.074;2023-02-20T15:34:47;46.17;;;9.23;;
21507;SDS011;10915;54.352;9.074;2023-02-20T15:39:46;44.37;;;10.00;;
21507;SDS011;10915;54.352;9.074;2023-02-20T15:42:13;43.57;;;9.07;;
21507;SDS011;10915;54.352;9.074;2023-02-20T15:44:39;41.27;;;8.23;;
21507;SDS011;10915;54.352;9.074;2023-02-20T15:47:05;45.17;;;9.87;;
21507;SDS011;10915;54.352;9.074;2023-02-20T15:49:32;38.90;;;8.43;;
21507;SDS011;10915;54.352;9.074;2023-02-20T15:51:58;38.17;;;10.27;;
21507;SDS011;10915;54.352;9.074;2023-02-20T15:54:24;40.80;;;10.30;;
21507;SDS011;10915;54.352;9.074;2023-02-20T15:56:50;39.20;;;8.87;;
21507;SDS011;10915;54.352;9.074;2023-02-20T15:59:16;37.90;;;10.17;;
21507;SDS011;10915;54.352;9.074;2023-02-20T16:01:43;44.27;;;9.47;;
21507;SDS011;10915;54.352;9.074;2023-02-20T16:04:16;44.47;;;9.40;;
21507;SDS011;10915;54.352;9.074;2023-02-20T16:06:43;49.90;;;11.83;;
21507;SDS011;10915;54.352;9.074;2023-02-20T16:09:09;42.90;;;10.23;;
21507;SDS011;10915;54.352;9.074;2023-02-20T16:11:39;39.70;;;9.43;;
21507;SDS011;10915;54.352;9.074;2023-02-20T16:14:07;45.43;;;9.33;;
21507;SDS011;10915;54.352;9.074;2023-02-20T16:16:37;43.53;;;11.17;;
21507;SDS011;10915;54.352;9.074;2023-02-20T16:19:10;51.33;;;10.03;;
21507;SDS011;10915;54.352;9.074;2023-02-20T16:21:41;48.37;;;9.33;;
21507;SDS011;10915;54.352;9.074;2023-02-20T16:24:08;49.83;;;9.47;;
21507;SDS011;10915;54.352;9.074;2023-02-20T16:26:34;40.30;;;9.07;;
21507;SDS011;10915;54.352;9.074;2023-02-20T16:29:06;42.80;;;9.80;;
21507;SDS011;10915;54.352;9.074;2023-02-20T16:34:22;54.63;;;9.90;;
21507;SDS011;10915;54.352;9.074;2023-02-20T16:36:52;43.87;;;10.13;;
21507;SDS011;10915;54.352;9.074;2023-02-20T16:39:18;44.93;;;10.73;;
21507;SDS011;10915;54.352;9.074;2023-02-20T16:41:44;52.90;;;9.97;;
21507;SDS011;10915;54.352;9.074;2023-02-20T16:44:22;39.53;;;9.47;;
21507;SDS011;10915;54.352;9.074;2023-02-20T16:46:55;45.50;;;10.07;;
21507;SDS011;10915;54.352;9.074;2023-02-20T16:49:21;43.43;;;9.70;;
21507;SDS011;10915;54.352;9.074;2023-02-20T16:51:46;46.60;;;9.87;;
21507;SDS011;10915;54.352;9.074;2023-02-20T16:54:23;60.80;;;10.73;;
21507;SDS011;10915;54.352;9.074;2023-02-20T16:56:49;45.83;;;10.57;;
21507;SDS011;10915;54.352;9.074;2023-02-20T16:59:15;44.10;;;9.20;;
21507;SDS011;10915;54.352;9.074;2023-02-20T17:01:40;41.47;;;9.67;;
21507;SDS011;10915;54.352;9.074;2023-02-20T17:04:07;44.83;;;10.03;;
21507;SDS011;10915;54.352;9.074;2023-02-20T17:06:38;48.13;;;10.10;;
21507;SDS011;10915;54.352;9.074;2023-02-20T17:09:04;54.60;;;10.33;;
21507;SDS011;10915;54.352;9.074;2023-02-20T17:11:30;52.50;;;8.90;;
21507;SDS011;10915;54.352;9.074;2023-02-20T17:13:55;53.07;;;10.00;;
21507;SDS011;10915;54.352;9.074;2023-02-20T17:16:21;47.40;;;10.00;;
21507;SDS011;10915;54.352;9.074;2023-02-20T17:18:46;45.50;;;9.77;;